CSH8 weather

Manicouagan/Lac Louise Seaplane Base
Quebec, Canada

Public forecast

Using degrees Celsius for public forecast. Weather courtesy of forecast.io.

Closest aviation weather report (METAR) to Manicouagan/Lac Louise Seaplane Base

Closest report is Baie Comeau Airport, 94.6 nm (175.3 km) SSE. Retrieved 2020/04/05 23:00 UTC (25 minutes ago):

CYBC 052300Z AUTO 21006KT 9SM -RA BKN041 OVC049 03/01 A2975 RMK SLP078

Closest aviation forecast (TAF) to Manicouagan/Lac Louise Seaplane Base

Closest forecast is Baie Comeau Airport, 94.6 nm (175.3 km) SSE. Retrieved 2020/04/05 20:00 UTC (3 hours ago):

TAF CYBC 051938Z 0520/0608 20007KT P6SM BKN070 BKN090 TEMPO 0520/0522 P6SM -RA FM052200 21005KT 6SM -RA BR FEW008 OVC025 TEMPO 0522/0601 2SM -RA BR OVC008 PROB30 0522/0601 1SM -RA BR OVC004 FM060100 24010KT P6SM BKN020 TEMPO 0601/0606 BKN025 BECMG 0601/0603 28010G20KT FM060600 27010G20KT P6SM BKN030 BECMG 0606/0608 28015G25KT RMK FCST BASED ON AUTO OBS NXT FCST BY 060200Z